Terminal Aerodrome Forecast
Issued by NWS

Home | Current Version | Previous Version | Text Only | Print | Product List | Glossary On
Versions: 1 2 3 4 5 6 7 8 9 10 11 12 13 14 15 16 17 18 19 20 21
000
FTUS43 KEAX 260326 AAA
TAFMKC
TAF AMD
KMKC 260326Z 2603/2624 17008KT P6SM SKC
     FM260600 18008KT P6SM VCTS BKN035CB
      TEMPO 2607/2610 2SM TSRA BR BKN015CB
     FM261000 18008KT P6SM OVC015
     FM261700 14010KT P6SM SCT020
     FM262000 15013G22KT P6SM VCTS BKN035CB=

USA.gov is the U.S. government's official web portal to all federal, state and local government web resources and services.